Time;durP1;ratioP1;P1;durP2;ratioP2;P2;SDS_P1;SDS_P2;PMS_P1;PMS_P2;Temp;Humidity;BMP_temperature;BMP_pressure;BME280_temperature;BME280_humidity;BME280_pressure;Samples;Min_cycle;Max_cycle;Signal;HPM_P1;HPM_P2
2022/05/10 00:00:10;;;;;;;;;;;;;;;16.37;100.00;98656.22;5080013;28;19924;-83
2022/05/10 00:02:41;;;;;;;;;;;;;;;16.20;100.00;98664.22;5076316;28;19925;-83
2022/05/10 00:05:10;;;;;;;;;;;;;;;16.03;100.00;98665.78;5090807;28;19928;-82
2022/05/10 00:07:37;;;;;;;;;;;;;;;16.20;100.00;98652.16;5077078;28;20356;-82
2022/05/10 00:10:06;;;;;;;;;;;;;;;16.41;100.00;98653.22;5096080;28;19931;-83
2022/05/10 00:12:35;;;;;;;;;;;;;;;16.16;100.00;98645.91;5055792;28;20376;-82
2022/05/10 00:15:02;;;;;;;;;;;;;;;16.37;100.00;98661.84;5071227;28;19925;-83
2022/05/10 00:17:34;;;;;;;;;;;;;;;16.17;100.00;98651.06;5055995;28;20050;-82
2022/05/10 00:20:02;;;;;;;;;;;;;;;16.28;100.00;98639.31;5092447;28;19932;-83
2022/05/10 00:22:29;;;;;;;;;;;;;;;16.18;100.00;98644.16;5075856;28;19924;-82
2022/05/10 00:24:56;;;;;;;;;;;;;;;16.21;100.00;98645.25;5075120;28;19978;-83
2022/05/10 00:27:23;;;;;;;;;;;;;;;16.26;100.00;98639.00;5075427;28;19978;-83
2022/05/10 00:29:51;;;;;;;;;;;;;;;16.24;100.00;98639.47;5107660;28;19939;-83
2022/05/10 00:32:17;;;;;;;;;;;;;;;16.12;100.00;98636.81;5075765;28;19974;-83
2022/05/10 00:34:48;;;;;;;;;;;;;;;16.05;100.00;98645.59;5058612;28;19974;-82
2022/05/10 00:37:18;;;;;;;;;;;;;;;16.32;100.00;98634.28;5058073;28;20393;-83
2022/05/10 00:39:45;;;;;;;;;;;;;;;16.32;100.00;98631.47;5075405;28;20311;-83
2022/05/10 00:42:18;;;;;;;;;;;;;;;16.55;100.00;98628.00;5054414;28;19924;-83
2022/05/10 00:44:50;;;;;;;;;;;;;;;16.44;100.00;98626.91;5056694;28;19935;-83
2022/05/10 00:47:40;;;;;;;;;;;;;;;16.13;100.00;98625.06;5070826;28;19925;-82
2022/05/10 00:50:23;;;;;;;;;;;;;;;15.88;100.00;98614.13;5076682;28;19924;-83
2022/05/10 00:52:56;;;;;;;;;;;;;;;16.01;100.00;98628.84;5084098;28;20027;-83
2022/05/10 00:55:27;;;;;;;;;;;;;;;16.39;100.00;98613.44;5038481;28;19936;-83
2022/05/10 00:57:56;;;;;;;;;;;;;;;16.36;100.00;98614.41;5076201;28;19972;-83
2022/05/10 01:00:25;;;;;;;;;;;;;;;16.27;100.00;98605.97;5075106;28;20399;-83
2022/05/10 01:02:59;;;;;;;;;;;;;;;16.23;100.00;98612.53;5054779;28;19928;-83
2022/05/10 01:05:26;;;;;;;;;;;;;;;16.30;100.00;98597.31;5088119;28;19986;-83
2022/05/10 01:07:53;;;;;;;;;;;;;;;16.11;100.00;98605.00;5074574;28;20311;-83
2022/05/10 01:10:33;;;;;;;;;;;;;;;16.08;100.00;98605.97;5075123;28;19924;-83
2022/05/10 01:13:09;;;;;;;;;;;;;;;16.13;100.00;98607.34;5054956;28;19932;-83
2022/05/10 01:15:38;;;;;;;;;;;;;;;16.43;100.00;98600.75;5071717;28;19931;-83
2022/05/10 01:18:59;;;;;;;;;;;;;;;16.04;100.00;98598.91;5111804;27;19912;-83
2022/05/10 01:21:27;;;;;;;;;;;;;;;16.10;100.00;98603.47;5060034;28;20054;-83
2022/05/10 01:24:15;;;;;;;;;;;;;;;16.15;100.00;98594.38;5076774;28;19938;-83
2022/05/10 01:26:54;;;;;;;;;;;;;;;16.02;100.00;98593.75;5109308;28;20006;-83
2022/05/10 01:29:28;;;;;;;;;;;;;;;16.07;100.00;98587.50;5111239;28;19935;-83
2022/05/10 01:34:45;;;;;;;;;;;;;;;16.10;100.00;98580.13;5091268;28;20440;-83
2022/05/10 01:37:15;;;;;;;;;;;;;;;16.25;100.00;98570.56;5120807;28;20299;-83
2022/05/10 01:39:45;;;;;;;;;;;;;;;16.43;100.00;98574.59;5093284;28;19924;-83
2022/05/10 01:42:18;;;;;;;;;;;;;;;16.21;100.00;98569.94;5073345;28;19924;-83
2022/05/10 01:44:55;;;;;;;;;;;;;;;16.35;100.00;98567.72;5082348;28;19933;-83
2022/05/10 01:47:30;;;;;;;;;;;;;;;16.13;100.00;98562.28;5101918;28;19924;-83
2022/05/10 01:50:13;;;;;;;;;;;;;;;15.95;100.00;98551.03;5123228;28;19946;-83
2022/05/10 01:52:48;;;;;;;;;;;;;;;15.91;100.00;98561.69;5075271;28;19977;-83
2022/05/10 01:55:30;;;;;;;;;;;;;;;16.21;100.00;98547.41;5059790;28;20360;-83
2022/05/10 01:58:01;;;;;;;;;;;;;;;16.20;100.00;98543.03;5092979;28;19924;-83
2022/05/10 02:00:28;;;;;;;;;;;;;;;16.13;100.00;98554.59;5092595;28;19931;-83
2022/05/10 02:03:11;;;;;;;;;;;;;;;15.96;100.00;98553.38;5076152;28;19931;-83
2022/05/10 02:05:58;;;;;;;;;;;;;;;16.06;100.00;98549.31;5092801;28;19924;-83
2022/05/10 02:08:33;;;;;;;;;;;;;;;15.89;100.00;98559.34;5092815;28;19953;-83
2022/05/10 02:11:04;;;;;;;;;;;;;;;16.02;100.00;98551.50;5091271;28;20034;-83
2022/05/10 02:13:37;;;;;;;;;;;;;;;15.93;100.00;98557.13;5092768;28;19931;-84
2022/05/10 02:16:09;;;;;;;;;;;;;;;15.87;100.00;98561.84;5093653;28;19924;-83
2022/05/10 02:18:46;;;;;;;;;;;;;;;15.72;100.00;98548.88;5092791;28;19925;-82
2022/05/10 02:21:25;;;;;;;;;;;;;;;16.05;100.00;98550.53;5075891;28;19931;-83
2022/05/10 02:23:58;;;;;;;;;;;;;;;15.85;100.00;98561.56;5109267;28;19924;-84
2022/05/10 02:26:35;;;;;;;;;;;;;;;15.93;100.00;98543.06;5079316;28;19930;-83
2022/05/10 02:29:06;;;;;;;;;;;;;;;16.25;100.00;98553.63;5103331;28;19931;-84
2022/05/10 02:33:06;;;;;;;;;;;;;;;16.15;100.00;98543.66;5079100;28;19924;-83
2022/05/10 02:34:26;;;;;;;;;;;;;;;16.03;100.00;98549.47;5078784;28;19924;-83
2022/05/10 02:36:53;;;;;;;;;;;;;;;15.47;100.00;98543.56;5062034;28;19931;-83
2022/05/10 02:39:20;;;;;;;;;;;;;;;15.90;100.00;98549.63;5095913;28;19946;-83
2022/05/10 02:41:47;;;;;;;;;;;;;;;15.67;100.00;98546.69;5078029;28;19925;-84
2022/05/10 02:44:14;;;;;;;;;;;;;;;15.95;100.00;98540.56;5061810;28;20019;-83
2022/05/10 02:46:43;;;;;;;;;;;;;;;15.82;100.00;98542.78;5079007;28;20016;-84
2022/05/10 02:49:11;;;;;;;;;;;;;;;15.80;100.00;98539.63;5062013;28;19935;-83
2022/05/10 02:51:38;;;;;;;;;;;;;;;16.08;100.00;98540.38;5096448;28;20313;-84
2022/05/10 02:54:05;;;;;;;;;;;;;;;16.03;100.00;98522.06;5077650;28;19928;-84
2022/05/10 02:56:32;;;;;;;;;;;;;;;15.96;100.00;98519.56;5096442;28;19928;-83
2022/05/10 02:59:02;;;;;;;;;;;;;;;15.98;100.00;98524.72;5057929;28;20303;-83
2022/05/10 03:01:35;;;;;;;;;;;;;;;15.90;100.00;98527.09;5075363;28;19924;-83
2022/05/10 03:04:03;;;;;;;;;;;;;;;15.73;100.00;98516.66;5077939;28;20291;-83
2022/05/10 03:06:33;;;;;;;;;;;;;;;16.13;100.00;98511.53;5044705;28;20279;-83
2022/05/10 03:09:00;;;;;;;;;;;;;;;15.92;100.00;98515.34;5077794;28;19924;-83
2022/05/10 03:11:27;;;;;;;;;;;;;;;16.13;100.00;98506.69;5061768;28;20006;-83
2022/05/10 03:13:55;;;;;;;;;;;;;;;15.87;100.00;98510.38;5077728;28;19974;-83
2022/05/10 03:16:23;;;;;;;;;;;;;;;15.95;100.00;98512.38;5078043;28;20271;-83
2022/05/10 03:18:51;;;;;;;;;;;;;;;15.86;100.00;98498.31;5043303;28;19978;-83
2022/05/10 03:21:19;;;;;;;;;;;;;;;15.93;100.00;98497.22;5067528;28;20384;-83
2022/05/10 03:23:46;;;;;;;;;;;;;;;15.76;100.00;98510.84;5053043;28;19931;-83
2022/05/10 03:26:15;;;;;;;;;;;;;;;15.83;100.00;98513.34;5057937;28;19925;-83
2022/05/10 03:28:43;;;;;;;;;;;;;;;16.17;100.00;98501.69;5026838;28;20186;-83
2022/05/10 03:31:11;;;;;;;;;;;;;;;16.06;100.00;98501.41;5021143;28;19932;-83
2022/05/10 03:33:38;;;;;;;;;;;;;;;15.99;100.00;98501.72;5053903;28;19928;-83
2022/05/10 03:36:06;;;;;;;;;;;;;;;15.82;100.00;98496.91;5053986;28;19978;-83
2022/05/10 03:38:33;;;;;;;;;;;;;;;15.88;100.00;98490.19;5036037;28;19955;-83
2022/05/10 03:41:00;;;;;;;;;;;;;;;16.04;100.00;98489.81;5033229;28;19932;-83
2022/05/10 03:43:27;;;;;;;;;;;;;;;15.86;100.00;98481.41;5052760;28;19931;-83
2022/05/10 03:45:54;;;;;;;;;;;;;;;15.73;100.00;98486.44;5054335;28;19968;-83
2022/05/10 03:48:22;;;;;;;;;;;;;;;15.85;100.00;98490.34;5054699;28;19956;-83
2022/05/10 03:50:49;;;;;;;;;;;;;;;15.75;100.00;98492.38;5069594;28;19948;-83
2022/05/10 03:53:17;;;;;;;;;;;;;;;15.84;100.00;98483.91;5054553;28;20434;-83
2022/05/10 03:55:44;;;;;;;;;;;;;;;15.81;100.00;98484.84;5037330;28;19932;-83
2022/05/10 03:58:13;;;;;;;;;;;;;;;15.68;100.00;98495.53;5053297;28;19935;-83
2022/05/10 04:00:40;;;;;;;;;;;;;;;15.85;100.00;98496.75;5037338;28;19925;-83
2022/05/10 04:03:08;;;;;;;;;;;;;;;15.86;100.00;98491.88;5019690;28;19932;-83
2022/05/10 04:05:35;;;;;;;;;;;;;;;15.57;100.00;98495.22;5054609;28;19928;-83
2022/05/10 04:08:02;;;;;;;;;;;;;;;15.62;100.00;98488.16;5035632;28;20009;-83
2022/05/10 04:10:30;;;;;;;;;;;;;;;15.65;100.00;98493.66;5074959;28;20280;-83
2022/05/10 04:12:57;;;;;;;;;;;;;;;15.89;100.00;98490.94;5057816;28;19925;-83
2022/05/10 04:15:24;;;;;;;;;;;;;;;15.53;100.00;98502.25;5053508;28;19964;-83
2022/05/10 04:17:52;;;;;;;;;;;;;;;15.55;100.00;98486.47;5054833;28;20386;-82
2022/05/10 04:20:19;;;;;;;;;;;;;;;15.69;100.00;98483.00;5033218;28;19925;-83
2022/05/10 04:22:46;;;;;;;;;;;;;;;15.75;100.00;98460.63;5055351;28;20011;-83
2022/05/10 04:25:16;;;;;;;;;;;;;;;15.86;100.00;98469.34;5049855;28;19925;-82
2022/05/10 04:27:44;;;;;;;;;;;;;;;16.06;100.00;98473.22;5017737;28;19926;-82
2022/05/10 04:30:11;;;;;;;;;;;;;;;16.11;100.00;98468.97;5074297;28;19929;-83
2022/05/10 04:32:40;;;;;;;;;;;;;;;15.81;100.00;98465.13;5063295;28;19931;-83
2022/05/10 04:35:08;;;;;;;;;;;;;;;15.67;100.00;98479.88;5053382;28;19924;-83
2022/05/10 04:37:35;;;;;;;;;;;;;;;15.50;100.00;98464.56;5053343;28;19924;-83
2022/05/10 04:42:49;;;;;;;;;;;;;;;15.27;100.00;98473.63;5051358;28;20296;-82
2022/05/10 04:45:16;;;;;;;;;;;;;;;15.15;100.00;98465.31;5020534;28;19925;-83
2022/05/10 04:47:44;;;;;;;;;;;;;;;15.39;100.00;98469.88;5052550;28;19963;-82
2022/05/10 04:50:12;;;;;;;;;;;;;;;15.54;100.00;98465.19;5052459;28;19928;-83
2022/05/10 04:52:39;;;;;;;;;;;;;;;15.13;100.00;98474.22;5061411;28;19932;-82
2022/05/10 04:55:08;;;;;;;;;;;;;;;15.21;100.00;98472.69;5034090;28;19925;-83
2022/05/10 04:57:38;;;;;;;;;;;;;;;15.17;100.00;98458.00;5039716;28;20019;-83
2022/05/10 05:00:11;;;;;;;;;;;;;;;15.32;100.00;98481.44;5037833;28;20023;-83
2022/05/10 05:02:38;;;;;;;;;;;;;;;15.29;100.00;98465.50;5054292;28;19976;-83
2022/05/10 05:05:06;;;;;;;;;;;;;;;15.09;100.00;98472.81;5052652;28;20018;-83
2022/05/10 05:07:34;;;;;;;;;;;;;;;15.02;100.00;98487.19;5052370;28;19960;-83
2022/05/10 05:10:02;;;;;;;;;;;;;;;15.19;100.00;98489.25;5069171;28;19929;-83
2022/05/10 05:12:32;;;;;;;;;;;;;;;15.15;100.00;98491.44;5068069;28;19979;-83
2022/05/10 05:15:00;;;;;;;;;;;;;;;15.04;100.00;98487.53;5069161;28;19925;-83
2022/05/10 05:17:28;;;;;;;;;;;;;;;15.03;100.00;98481.09;5062566;28;19995;-83
2022/05/10 05:19:55;;;;;;;;;;;;;;;15.19;100.00;98489.25;5048873;28;19932;-83
2022/05/10 05:22:22;;;;;;;;;;;;;;;15.16;100.00;98484.53;5065593;28;19929;-83
2022/05/10 05:24:48;;;;;;;;;;;;;;;15.18;100.00;98484.88;5036409;28;19982;-83
2022/05/10 05:27:15;;;;;;;;;;;;;;;14.79;100.00;98470.91;5037766;28;19924;-82
2022/05/10 05:29:43;;;;;;;;;;;;;;;15.13;100.00;98484.72;5019015;28;19924;-82
2022/05/10 05:32:28;;;;;;;;;;;;;;;14.98;100.00;98476.09;5035952;28;19925;-83
2022/05/10 05:34:57;;;;;;;;;;;;;;;14.93;100.00;98475.94;5035423;28;20435;-82
2022/05/10 05:40:13;;;;;;;;;;;;;;;15.09;100.00;98478.44;5054011;28;19925;-83
2022/05/10 05:42:44;;;;;;;;;;;;;;;14.84;100.00;98476.72;5085052;28;19929;-83
2022/05/10 05:45:12;;;;;;;;;;;;;;;14.59;100.00;98473.34;5061440;28;19932;-83
2022/05/10 05:47:40;;;;;;;;;;;;;;;14.63;100.00;98469.16;5048941;28;19975;-83
2022/05/10 05:50:08;;;;;;;;;;;;;;;14.68;100.00;98471.34;5040999;28;20379;-82
2022/05/10 05:52:35;;;;;;;;;;;;;;;14.60;100.00;98481.31;5053397;28;19925;-82
2022/05/10 05:55:03;;;;;;;;;;;;;;;14.60;100.00;98486.19;5053003;28;19928;-82
2022/05/10 05:57:30;;;;;;;;;;;;;;;14.45;100.00;98469.88;5052222;28;19932;-82
2022/05/10 06:00:00;;;;;;;;;;;;;;;14.43;100.00;98478.00;5035493;28;19924;-82
2022/05/10 06:02:37;;;;;;;;;;;;;;;14.53;100.00;98492.88;5052227;28;19955;-83
2022/05/10 06:05:05;;;;;;;;;;;;;;;14.36;100.00;98491.53;5085820;28;19924;-83
2022/05/10 06:07:33;;;;;;;;;;;;;;;14.48;100.00;98496.28;5089152;28;19925;-82
2022/05/10 06:10:00;;;;;;;;;;;;;;;14.30;100.00;98497.00;5087929;28;19925;-82
2022/05/10 06:12:27;;;;;;;;;;;;;;;14.38;100.00;98501.09;5057086;28;19925;-83
2022/05/10 06:14:55;;;;;;;;;;;;;;;14.45;100.00;98497.19;5056356;28;19932;-82
2022/05/10 06:17:23;;;;;;;;;;;;;;;14.59;100.00;98488.19;5070665;28;19928;-82
2022/05/10 06:22:44;;;;;;;;;;;;;;;14.33;100.00;98495.28;5041771;28;19966;-82
2022/05/10 06:25:17;;;;;;;;;;;;;;;14.34;100.00;98508.88;5076905;28;19970;-82
2022/05/10 06:28:07;;;;;;;;;;;;;;;15.18;100.00;98515.03;5091900;28;19938;-83
2022/05/10 06:30:35;;;;;;;;;;;;;;;15.71;100.00;98508.66;5090829;28;19931;-82
2022/05/10 06:33:02;;;;;;;;;;;;;;;16.07;100.00;98490.91;5090130;28;20015;-82
2022/05/10 06:35:29;;;;;;;;;;;;;;;16.80;100.00;98486.53;5072517;28;19974;-83
2022/05/10 06:38:16;;;;;;;;;;;;;;;16.76;100.00;98490.81;5069907;28;19955;-82
2022/05/10 06:40:45;;;;;;;;;;;;;;;17.30;100.00;98491.22;5072629;28;19999;-82
2022/05/10 06:43:12;;;;;;;;;;;;;;;16.85;100.00;98485.91;5090546;28;19924;-82
2022/05/10 06:45:43;;;;;;;;;;;;;;;17.21;100.00;98504.63;5089058;28;20003;-83
2022/05/10 06:48:11;;;;;;;;;;;;;;;17.24;100.00;98498.81;5089832;28;19924;-82
2022/05/10 06:50:38;;;;;;;;;;;;;;;17.60;100.00;98500.56;5089673;28;19925;-82
2022/05/10 06:53:06;;;;;;;;;;;;;;;18.30;100.00;98493.88;5090292;28;20011;-82
2022/05/10 06:55:33;;;;;;;;;;;;;;;18.39;100.00;98484.56;5090049;28;19925;-82
2022/05/10 06:58:01;;;;;;;;;;;;;;;18.20;100.00;98489.63;5105324;28;19924;-82
2022/05/10 07:00:31;;;;;;;;;;;;;;;18.27;100.00;98486.38;5090625;28;20027;-83
2022/05/10 07:03:03;;;;;;;;;;;;;;;18.09;100.00;98494.28;5099453;28;20336;-82
2022/05/10 07:05:30;;;;;;;;;;;;;;;18.34;100.00;98500.13;5069428;28;19947;-82
2022/05/10 07:07:57;;;;;;;;;;;;;;;18.01;100.00;98493.91;5078540;28;19934;-81
2022/05/10 07:10:25;;;;;;;;;;;;;;;17.60;100.00;98492.88;5089227;28;19946;-82
2022/05/10 07:12:53;;;;;;;;;;;;;;;16.80;100.00;98491.41;5090481;28;20372;-82
2022/05/10 07:19:08;;;;;;;;;;;;;;;18.41;100.00;98479.97;5075473;28;20322;-83
2022/05/10 07:21:45;;;;;;;;;;;;;;;18.73;100.00;98487.41;5089216;28;19924;-81
2022/05/10 07:24:16;;;;;;;;;;;;;;;19.72;100.00;98487.16;5119893;28;19925;-82
2022/05/10 07:26:47;;;;;;;;;;;;;;;20.04;100.00;98481.03;5072755;28;19924;-83
2022/05/10 07:29:15;;;;;;;;;;;;;;;20.59;100.00;98492.13;5090038;28;19932;-82
2022/05/10 07:31:42;;;;;;;;;;;;;;;20.34;100.00;98487.28;5089643;28;19977;-81
2022/05/10 07:34:10;;;;;;;;;;;;;;;19.99;100.00;98495.19;5089038;28;19982;-82
2022/05/10 07:36:38;;;;;;;;;;;;;;;18.81;100.00;98499.84;5089059;28;20318;-82
2022/05/10 07:39:07;;;;;;;;;;;;;;;18.43;100.00;98507.75;5086403;28;19931;-82
2022/05/10 07:41:34;;;;;;;;;;;;;;;17.91;100.00;98495.25;5086924;28;19924;-82
2022/05/10 07:44:02;;;;;;;;;;;;;;;18.08;100.00;98501.22;5071650;28;19924;-82
2022/05/10 07:46:29;;;;;;;;;;;;;;;18.15;100.00;98486.69;5075579;28;20017;-82
2022/05/10 07:48:57;;;;;;;;;;;;;;;18.41;100.00;98494.09;5087205;28;19925;-82
2022/05/10 07:51:25;;;;;;;;;;;;;;;18.66;100.00;98490.63;5063563;28;19963;-82
2022/05/10 07:53:52;;;;;;;;;;;;;;;19.10;100.00;98494.09;5079344;28;19947;-82
2022/05/10 07:58:57;;;;;;;;;;;;;;;18.14;100.00;98502.88;5083064;27;2052547;-83
2022/05/10 08:01:25;;;;;;;;;;;;;;;18.59;100.00;98504.41;5133329;27;20395;-83
2022/05/10 08:04:05;;;;;;;;;;;;;;;19.08;100.00;98495.88;5134585;27;20407;-84
2022/05/10 08:07:05;;;;;;;;;;;;;;;19.45;100.00;98492.00;5068477;27;20370;-84
2022/05/10 08:09:33;;;;;;;;;;;;;;;19.79;100.00;98481.84;5120731;27;19923;-84
2022/05/10 08:12:02;;;;;;;;;;;;;;;20.21;100.00;98484.06;5079410;27;20385;-84
2022/05/10 08:14:30;;;;;;;;;;;;;;;19.82;100.00;98492.19;5114499;28;20336;-84
2022/05/10 08:16:59;;;;;;;;;;;;;;;20.84;100.00;98475.00;5128350;27;19923;-83
2022/05/10 08:19:26;;;;;;;;;;;;;;;20.56;100.00;98481.78;5111867;28;19947;-84
2022/05/10 08:22:04;;;;;;;;;;;;;;;21.00;100.00;98488.56;5137349;27;19931;-84
2022/05/10 08:24:32;;;;;;;;;;;;;;;20.69;100.00;98488.59;5111220;27;19928;-86
2022/05/10 08:27:01;;;;;;;;;;;;;;;20.44;100.00;98478.09;5117681;27;19934;-84
2022/05/10 08:29:28;;;;;;;;;;;;;;;19.66;100.00;98496.38;5134862;27;19923;-84
2022/05/10 08:31:55;;;;;;;;;;;;;;;19.43;100.00;98508.72;5096698;28;19924;-84
2022/05/10 08:34:22;;;;;;;;;;;;;;;18.36;100.00;98522.28;5131830;27;19984;-84
2022/05/10 08:36:52;;;;;;;;;;;;;;;18.04;100.00;98524.00;5113221;28;19924;-84
2022/05/10 08:39:19;;;;;;;;;;;;;;;17.92;100.00;98534.34;5098185;27;19945;-84
2022/05/10 08:45:57;;;;;;;;;;;;;;;17.79;100.00;98538.72;5118752;27;20000;-85
2022/05/10 08:51:41;;;;;;;;;;;;;;;18.64;100.00;98537.69;5118523;27;19930;-82
2022/05/10 08:54:09;;;;;;;;;;;;;;;18.22;100.00;98537.94;5138846;27;20378;-82
2022/05/10 08:56:59;;;;;;;;;;;;;;;18.37;100.00;98529.47;5100654;28;20422;-84
2022/05/10 08:59:35;;;;;;;;;;;;;;;18.62;100.00;98532.50;5117029;28;20386;-84
2022/05/10 09:02:05;;;;;;;;;;;;;;;18.49;100.00;98540.53;5133251;27;19931;-85
2022/05/10 09:04:48;;;;;;;;;;;;;;;17.72;100.00;98536.28;5101429;27;20342;-84
2022/05/10 09:07:31;;;;;;;;;;;;;;;17.92;100.00;98548.47;5120498;27;19930;-84
2022/05/10 09:10:06;;;;;;;;;;;;;;;17.89;100.00;98540.97;5109223;28;19977;-85
2022/05/10 09:13:08;;;;;;;;;;;;;;;18.26;100.00;98537.78;5117271;28;19923;-83
2022/05/10 09:15:43;;;;;;;;;;;;;;;18.01;100.00;98550.41;5019868;28;19932;-84
2022/05/10 09:18:19;;;;;;;;;;;;;;;17.30;100.00;98553.34;4983456;28;19932;-83
2022/05/10 09:21:08;;;;;;;;;;;;;;;17.66;100.00;98552.34;5002367;28;19929;-84
2022/05/10 09:23:39;;;;;;;;;;;;;;;17.51;100.00;98549.44;5030145;28;19932;-83
2022/05/10 09:26:19;;;;;;;;;;;;;;;17.30;100.00;98539.22;4999339;28;19926;-84
2022/05/10 09:29:30;;;;;;;;;;;;;;;17.55;100.00;98537.97;5014643;28;19936;-83
2022/05/10 09:34:55;;;;;;;;;;;;;;;18.04;100.00;98515.53;5016222;28;20018;-84
2022/05/10 09:37:41;;;;;;;;;;;;;;;17.86;100.00;98527.81;5024773;28;19925;-85
2022/05/10 09:40:24;;;;;;;;;;;;;;;17.94;100.00;98525.38;5006131;28;19929;-83
2022/05/10 09:42:52;;;;;;;;;;;;;;;18.47;100.00;98530.97;5015887;28;19929;-83
2022/05/10 09:45:27;;;;;;;;;;;;;;;18.27;100.00;98528.78;5029185;28;19937;-84
2022/05/10 09:47:58;;;;;;;;;;;;;;;18.56;100.00;98523.16;5000477;28;19932;-84
2022/05/10 09:50:27;;;;;;;;;;;;;;;18.89;100.00;98528.53;4997806;28;19924;-83
2022/05/10 09:53:08;;;;;;;;;;;;;;;18.90;100.00;98527.28;5117018;27;19996;-83
2022/05/10 09:55:35;;;;;;;;;;;;;;;18.59;100.00;98536.31;5081176;28;19924;-84
2022/05/10 10:02:17;;;;;;;;;;;;;;;17.78;100.00;98546.41;5085718;28;20362;-84
2022/05/10 10:05:38;;;;;;;;;;;;;;;16.98;100.00;98564.69;5112013;28;19935;-83
2022/05/10 10:08:14;;;;;;;;;;;;;;;16.46;100.00;98573.66;5093668;28;20011;-83
2022/05/10 10:10:43;;;;;;;;;;;;;;;16.38;100.00;98572.41;5104649;28;19923;-82
2022/05/10 10:13:30;;;;;;;;;;;;;;;15.59;100.00;98574.38;5114404;28;19951;-84
2022/05/10 10:15:57;;;;;;;;;;;;;;;15.82;100.00;98593.47;5109405;28;19928;-83
2022/05/10 10:18:38;;;;;;;;;;;;;;;15.49;100.00;98586.91;5100484;28;20264;-83
2022/05/10 10:21:07;;;;;;;;;;;;;;;15.65;100.00;98599.88;5105161;28;20465;-83
2022/05/10 10:23:41;;;;;;;;;;;;;;;15.99;100.00;98591.13;5100622;28;19924;-82
2022/05/10 10:26:19;;;;;;;;;;;;;;;16.03;100.00;98598.16;5105226;28;19923;-83
2022/05/10 10:28:52;;;;;;;;;;;;;;;15.54;100.00;98589.06;5095513;28;20303;-82
2022/05/10 10:31:29;;;;;;;;;;;;;;;15.99;100.00;98591.88;5090322;28;19923;-82
2022/05/10 10:34:10;;;;;;;;;;;;;;;16.57;100.00;98585.22;5084861;28;20443;-82
2022/05/10 10:36:50;;;;;;;;;;;;;;;17.23;100.00;98583.97;5086041;28;20365;-81
2022/05/10 10:39:45;;;;;;;;;;;;;;;16.75;100.00;98569.00;5101390;28;20295;-83
2022/05/10 10:42:40;;;;;;;;;;;;;;;16.66;100.00;98560.56;5083259;28;19975;-82
2022/05/10 10:45:12;;;;;;;;;;;;;;;17.32;100.00;98555.69;5095490;28;20054;-82
2022/05/10 10:48:04;;;;;;;;;;;;;;;17.92;100.00;98556.16;5081023;28;20091;-82
2022/05/10 10:50:49;;;;;;;;;;;;;;;17.66;100.00;98546.69;5109648;28;19924;-83
2022/05/10 10:53:24;;;;;;;;;;;;;;;18.02;100.00;98537.88;5112419;27;19928;-83
2022/05/10 11:00:00;;;;;;;;;;;;;;;16.07;100.00;98547.25;5106753;28;19931;-81
2022/05/10 11:02:56;;;;;;;;;;;;;;;15.92;100.00;98563.25;5100640;28;19930;-82
2022/05/10 11:05:35;;;;;;;;;;;;;;;15.61;100.00;98560.63;5086936;28;19977;-82
2022/05/10 11:11:52;;;;;;;;;;;;;;;14.25;100.00;98600.78;5089223;28;20272;-83
2022/05/10 11:14:20;;;;;;;;;;;;;;;14.75;100.00;98589.19;5080835;28;19960;-82
2022/05/10 11:16:50;;;;;;;;;;;;;;;14.99;100.00;98587.38;5109808;28;20057;-82
2022/05/10 11:19:26;;;;;;;;;;;;;;;14.71;100.00;98576.50;5113208;28;19924;-82
2022/05/10 11:21:57;;;;;;;;;;;;;;;15.51;100.00;98561.84;5113353;28;19924;-82
2022/05/10 11:24:37;;;;;;;;;;;;;;;15.57;100.00;98567.66;5076271;28;20015;-82
2022/05/10 11:27:13;;;;;;;;;;;;;;;15.87;100.00;98570.28;5092965;28;19931;-82
2022/05/10 11:30:19;;;;;;;;;;;;;;;16.40;100.00;98553.78;5069909;28;19924;-82
2022/05/10 11:33:05;;;;;;;;;;;;;;;16.45;100.00;98547.50;5061590;28;19924;-82
2022/05/10 11:35:50;;;;;;;;;;;;;;;16.55;100.00;98534.16;5086956;28;19939;-80
2022/05/10 11:38:27;;;;;;;;;;;;;;;16.77;100.00;98532.63;5088321;28;19925;-81
2022/05/10 11:41:03;;;;;;;;;;;;;;;17.27;100.00;98530.91;5057137;28;19924;-82
2022/05/10 11:43:32;;;;;;;;;;;;;;;17.85;100.00;98519.81;5026306;28;19928;-81
2022/05/10 11:46:11;;;;;;;;;;;;;;;18.31;100.00;98511.66;5063766;28;20054;-83
2022/05/10 11:48:38;;;;;;;;;;;;;;;18.60;100.00;98517.31;5088251;28;19924;-81
2022/05/10 11:54:20;;;;;;;;;;;;;;;18.87;100.00;98509.22;5058881;28;20042;-82
2022/05/10 11:56:48;;;;;;;;;;;;;;;19.28;100.00;98510.84;5082611;28;20003;-83
2022/05/10 11:59:23;;;;;;;;;;;;;;;18.99;100.00;98510.94;5072044;28;19931;-82
2022/05/10 12:01:51;;;;;;;;;;;;;;;19.14;100.00;98502.41;5074487;28;19931;-82
2022/05/10 12:04:37;;;;;;;;;;;;;;;18.87;100.00;98497.88;5104190;28;19930;-82
2022/05/10 12:07:24;;;;;;;;;;;;;;;18.91;100.00;98515.47;5100365;28;19930;-82
2022/05/10 12:09:51;;;;;;;;;;;;;;;18.87;100.00;98495.06;5093074;28;20003;-81
2022/05/10 12:12:30;;;;;;;;;;;;;;;18.68;100.00;98490.94;5104558;28;20449;-80
2022/05/10 12:24:05;;;;;;;;;;;;;;;19.40;100.00;98486.28;5094836;28;19950;-81
2022/05/10 12:26:40;;;;;;;;;;;;;;;18.67;100.00;98500.69;5065756;28;20461;-80
2022/05/10 12:29:28;;;;;;;;;;;;;;;18.38;100.00;98500.75;5055392;28;19943;-81
2022/05/10 12:31:58;;;;;;;;;;;;;;;18.41;100.00;98522.38;5086408;28;19931;-81
2022/05/10 12:34:41;;;;;;;;;;;;;;;18.53;100.00;98518.47;5082262;28;19924;-81
2022/05/10 12:37:31;;;;;;;;;;;;;;;18.18;100.00;98520.41;5071779;28;20318;-80
2022/05/10 12:40:02;;;;;;;;;;;;;;;18.31;100.00;98506.75;5071099;28;19924;-80
2022/05/10 12:42:33;;;;;;;;;;;;;;;17.86;100.00;98498.75;5071227;28;19931;-80
2022/05/10 12:45:03;;;;;;;;;;;;;;;18.34;100.00;98502.97;5088813;28;19924;-80
2022/05/10 12:47:31;;;;;;;;;;;;;;;18.58;100.00;98495.16;5090964;28;20062;-82
2022/05/10 12:50:19;;;;;;;;;;;;;;;18.70;100.00;98504.59;5077486;28;20397;-82
2022/05/10 12:53:11;;;;;;;;;;;;;;;18.54;100.00;98502.28;5058734;28;20295;-81
2022/05/10 12:55:42;;;;;;;;;;;;;;;18.77;100.00;98493.63;5094393;28;19924;-81
2022/05/10 12:58:41;;;;;;;;;;;;;;;19.11;100.00;98477.91;5076382;28;19921;-81
2022/05/10 13:01:14;;;;;;;;;;;;;;;19.23;100.00;98474.72;5076614;28;19925;-82
2022/05/10 13:03:46;;;;;;;;;;;;;;;19.51;100.00;98473.03;5077780;28;19929;-82
2022/05/10 13:06:33;;;;;;;;;;;;;;;18.87;100.00;98475.25;5084095;28;19982;-81
2022/05/10 13:09:19;;;;;;;;;;;;;;;18.80;100.00;98469.22;5077825;28;19924;-81
2022/05/10 13:11:48;;;;;;;;;;;;;;;19.26;100.00;98453.91;5072119;28;19974;-81
2022/05/10 13:14:15;;;;;;;;;;;;;;;18.56;100.00;98472.22;5061629;28;19925;-80
2022/05/10 13:16:44;;;;;;;;;;;;;;;18.73;100.00;98459.13;5079475;28;20353;-81
2022/05/10 13:19:11;;;;;;;;;;;;;;;18.37;100.00;98453.13;5071855;28;19940;-80
2022/05/10 13:21:39;;;;;;;;;;;;;;;19.13;100.00;98458.38;5075448;28;20379;-81
2022/05/10 13:24:11;;;;;;;;;;;;;;;19.39;100.00;98459.22;5081092;28;20268;-81
2022/05/10 13:27:08;;;;;;;;;;;;;;;19.00;100.00;98455.09;5089262;28;19928;-81
2022/05/10 13:29:48;;;;;;;;;;;;;;;19.28;100.00;98459.88;5085054;28;20060;-81
2022/05/10 13:32:36;;;;;;;;;;;;;;;19.36;100.00;98448.88;5086527;28;20031;-82
2022/05/10 13:35:09;;;;;;;;;;;;;;;19.64;100.00;98442.25;5104920;28;19959;-82
2022/05/10 13:37:37;;;;;;;;;;;;;;;19.38;100.00;98461.28;5076322;28;19931;-81
2022/05/10 13:40:12;;;;;;;;;;;;;;;19.50;100.00;98448.81;5076390;28;19928;-81
2022/05/10 13:44:22;;;;;;;;;;;;;;;20.05;100.00;98447.81;5093118;27;19970;-81
2022/05/10 13:46:53;;;;;;;;;;;;;;;19.73;100.00;98454.69;5060192;28;20419;-81
2022/05/10 13:49:23;;;;;;;;;;;;;;;19.56;100.00;98457.34;5091726;28;19928;-82
2022/05/10 13:51:53;;;;;;;;;;;;;;;19.55;100.00;98450.91;5063862;28;20024;-82
2022/05/10 13:54:30;;;;;;;;;;;;;;;19.95;100.00;98454.94;5060275;28;19970;-82
2022/05/10 13:57:18;;;;;;;;;;;;;;;19.94;100.00;98437.13;5092125;28;20413;-82